CheckWX is a tool to help pilots better visualize weather data.  It is not intended as a substitute for an official pre-flight weather briefing.

21:38:22 UTC

HELX TAF
Luxor International Airport
Luxor, Egypt
TAF HELX 201700Z 2018/2124 32008KT CAVOK

Mar-20@
18:00 UTC

Mar-20 @ 18:00 UTC

Mar-22@
00:00 UTC

Mar-22 @ 00:00 UTC

TAF HELX 201700Z 2018/2124 32008KT CAVOK
Wind
  • 320° at 8 KTS
Conditions
No significant weather
Cloud Levels
  • No significant clouds